KMEH

Meacham Airport

Meacham, Oregon, USA
METAR KMEH 170756Z AUTO 00000KT 10SM FEW050 FEW075 SCT120 04/M01 A2993 RMK AO2 SLP146 T00391011 400500022
Observed Flight Rules
Dec-17 @ 07:56 UTC (43 minutes ago) Visual Flight Rules
Visibility Clouds
10 miles
  • Few at 5,000' AGL
  • Few at 7,500' AGL
  • Scattered at 12,000' AGL
Temperatures Readings
Current 4°C / 39°F
Dewpoint -1°C / 30°F
Humidity 70%
Altimeter 29.93" Hg
Pressure 1014.6 hPa
Elevation 1136
METAR KMEH 170756Z AUTO 00000KT 10SM FEW050 FEW075 SCT120 04/M01 A2993 RMK AO2 SLP146 T00391011 400500022
Observed Flight Rules
Dec-17 @ 07:56 UTC
(43 minutes ago)
VFR
Clouds
  • Few at 5,000' AGL
  • Few at 7,500' AGL
  • Scattered at 12,000' AGL
Temperature Dewpoint
4°C / 39°F -1°C / 30°F
Humidity Altimeter Pressure
70% 29.93" Hg 1014.6 hPa